createdAt,value
2018-12-10T00:00:07.722Z,6.60
2018-12-10T00:02:42.406Z,6.60
2018-12-10T00:05:15.484Z,6.50
2018-12-10T00:07:48.212Z,6.50
2018-12-10T00:10:22.391Z,6.50
2018-12-10T00:12:57.562Z,6.50
2018-12-10T00:15:31.138Z,6.50
2018-12-10T00:18:04.740Z,6.50
2018-12-10T00:20:37.328Z,6.50
2018-12-10T00:23:11.996Z,6.40
2018-12-10T00:25:44.912Z,6.50
2018-12-10T00:28:18.726Z,6.40
2018-12-10T00:30:51.768Z,6.40
2018-12-10T00:33:24.412Z,6.40
2018-12-10T00:35:58.691Z,6.40
2018-12-10T00:38:31.952Z,6.40
2018-12-10T00:41:06.545Z,6.40
2018-12-10T00:43:39.695Z,6.30
2018-12-10T00:46:12.484Z,6.30
2018-12-10T00:48:46.404Z,6.30
2018-12-10T00:51:20.057Z,6.30
2018-12-10T00:53:52.827Z,6.40
2018-12-10T00:56:25.785Z,6.40
2018-12-10T00:58:59.318Z,6.30
2018-12-10T01:01:32.309Z,6.30
2018-12-10T01:04:05.663Z,6.30
2018-12-10T01:06:41.000Z,6.30
2018-12-10T01:09:14.027Z,6.30
2018-12-10T01:11:46.691Z,6.30
2018-12-10T01:14:19.463Z,6.30
2018-12-10T01:16:53.438Z,6.30
2018-12-10T01:19:26.967Z,6.20
2018-12-10T01:21:59.711Z,6.20
2018-12-10T01:24:32.761Z,6.30
2018-12-10T01:27:05.267Z,6.20
2018-12-10T01:29:38.252Z,6.10
2018-12-10T01:32:11.407Z,6.10
2018-12-10T01:34:45.806Z,6.10
2018-12-10T01:37:18.415Z,6.10
2018-12-10T01:39:51.775Z,6.10
2018-12-10T01:42:24.881Z,6.00
2018-12-10T01:44:58.384Z,6.00
2018-12-10T01:47:30.940Z,6.00
2018-12-10T01:50:04.475Z,6.00
2018-12-10T01:52:37.121Z,6.00
2018-12-10T01:55:10.271Z,5.90
2018-12-10T01:57:44.600Z,5.90
2018-12-10T02:00:17.898Z,5.90
2018-12-10T02:02:51.317Z,5.80
2018-12-10T02:05:24.913Z,5.80
2018-12-10T02:07:58.225Z,5.90
2018-12-10T02:10:30.942Z,5.90
2018-12-10T02:13:03.989Z,5.90
2018-12-10T02:15:36.492Z,5.90
2018-12-10T02:18:10.048Z,5.80
2018-12-10T02:20:42.858Z,5.90
2018-12-10T02:23:15.888Z,6.00
2018-12-10T02:25:49.477Z,5.90
2018-12-10T02:28:29.464Z,5.90
2018-12-10T02:31:04.084Z,5.90
2018-12-10T02:33:37.281Z,5.80
2018-12-10T02:36:11.699Z,5.80
2018-12-10T02:38:44.623Z,5.80
2018-12-10T02:41:17.661Z,5.80
2018-12-10T02:43:51.781Z,5.90
2018-12-10T02:46:27.092Z,5.90
2018-12-10T02:48:59.667Z,5.80
2018-12-10T02:51:33.326Z,5.90
2018-12-10T02:54:06.194Z,5.80
2018-12-10T02:56:39.236Z,5.90
2018-12-10T02:59:12.653Z,5.80
2018-12-10T03:01:45.313Z,5.80
2018-12-10T03:04:18.545Z,5.90
2018-12-10T03:06:51.766Z,5.80
2018-12-10T03:09:26.367Z,5.80
2018-12-10T03:12:00.498Z,5.80
2018-12-10T03:14:33.570Z,5.80
2018-12-10T03:17:06.763Z,5.80
2018-12-10T03:19:39.777Z,5.80
2018-12-10T03:22:19.988Z,5.80
2018-12-10T03:24:52.660Z,5.80
2018-12-10T03:27:25.317Z,5.80
2018-12-10T03:29:59.022Z,5.80
2018-12-10T03:32:32.446Z,5.80
2018-12-10T03:35:05.756Z,5.80
2018-12-10T03:37:39.235Z,5.80
2018-12-10T03:40:11.938Z,5.80
2018-12-10T03:42:45.926Z,5.80
2018-12-10T03:45:19.207Z,5.80
2018-12-10T03:48:06.549Z,5.80
2018-12-10T03:50:39.552Z,5.80
2018-12-10T03:53:14.094Z,5.80
2018-12-10T03:55:49.368Z,5.80
2018-12-10T03:58:23.709Z,5.80
2018-12-10T04:00:57.207Z,5.80
2018-12-10T04:03:30.240Z,5.80
2018-12-10T04:06:03.976Z,5.80
2018-12-10T04:08:37.139Z,5.90
2018-12-10T04:11:10.574Z,5.80
2018-12-10T04:13:43.553Z,5.90
2018-12-10T04:16:17.207Z,5.80
2018-12-10T04:18:50.387Z,5.80
2018-12-10T04:21:23.826Z,5.80
2018-12-10T04:23:57.245Z,5.80
2018-12-10T04:26:31.433Z,5.70
2018-12-10T04:29:04.022Z,5.70
2018-12-10T04:31:37.756Z,5.70
2018-12-10T04:34:12.168Z,5.80
2018-12-10T04:36:44.781Z,5.80
2018-12-10T04:39:18.588Z,5.70
2018-12-10T04:41:52.024Z,5.70
2018-12-10T04:44:26.770Z,5.70
2018-12-10T04:46:59.912Z,5.70
2018-12-10T04:49:33.265Z,5.80
2018-12-10T04:52:05.967Z,5.80
2018-12-10T04:54:39.159Z,5.80
2018-12-10T04:57:11.965Z,5.80
2018-12-10T04:59:52.570Z,5.80
2018-12-10T05:02:21.370Z,5.80
2018-12-10T05:04:54.112Z,5.80
2018-12-10T05:07:28.534Z,5.90
2018-12-10T05:10:02.101Z,5.80
2018-12-10T05:12:36.337Z,5.70
2018-12-10T05:15:09.279Z,5.80
2018-12-10T05:17:41.995Z,5.90
2018-12-10T05:20:15.472Z,5.80
2018-12-10T05:22:49.513Z,5.80
2018-12-10T05:25:23.008Z,5.80
2018-12-10T05:27:56.789Z,5.90
2018-12-10T05:30:29.693Z,6.00
2018-12-10T05:33:04.349Z,5.80
2018-12-10T05:35:37.591Z,5.80
2018-12-10T05:38:10.907Z,5.70
2018-12-10T05:40:44.953Z,5.70
2018-12-10T05:43:18.073Z,5.60
2018-12-10T05:45:51.410Z,5.70
2018-12-10T05:48:25.075Z,5.70
2018-12-10T05:50:59.589Z,5.70
2018-12-10T05:53:34.557Z,5.60
2018-12-10T05:56:07.329Z,5.70
2018-12-10T05:58:40.103Z,5.60
2018-12-10T06:01:13.753Z,5.70
2018-12-10T06:03:47.060Z,5.70
2018-12-10T06:06:20.307Z,5.60
2018-12-10T06:08:53.810Z,5.60
2018-12-10T06:11:27.169Z,5.60
2018-12-10T06:14:00.221Z,5.60
2018-12-10T06:16:33.277Z,5.70
2018-12-10T06:19:06.592Z,5.60
2018-12-10T06:21:39.164Z,5.70
2018-12-10T06:24:12.973Z,5.60
2018-12-10T06:26:46.336Z,5.50
2018-12-10T06:29:20.006Z,5.60
2018-12-10T06:31:54.219Z,5.50
2018-12-10T06:34:27.040Z,5.50
2018-12-10T06:37:00.157Z,5.50
2018-12-10T06:39:32.935Z,5.50
2018-12-10T06:42:06.060Z,5.50
2018-12-10T06:44:39.325Z,5.50
2018-12-10T06:47:13.746Z,5.30
2018-12-10T06:49:46.978Z,5.30
2018-12-10T06:52:19.945Z,5.30
2018-12-10T06:54:52.852Z,5.20
2018-12-10T06:57:25.548Z,5.20
2018-12-10T06:59:58.378Z,5.30
2018-12-10T07:02:32.899Z,5.20
2018-12-10T07:05:05.879Z,5.10
2018-12-10T07:07:38.736Z,5.20
2018-12-10T07:10:12.123Z,5.10
2018-12-10T07:12:46.253Z,5.10
2018-12-10T07:15:19.761Z,5.10
2018-12-10T07:17:53.021Z,5.20
2018-12-10T07:20:27.651Z,5.20
2018-12-10T07:23:00.376Z,5.20
2018-12-10T07:25:34.910Z,5.20
2018-12-10T07:28:08.095Z,5.20
2018-12-10T07:30:41.475Z,5.20
2018-12-10T07:33:15.067Z,5.10
2018-12-10T07:35:49.552Z,5.20
2018-12-10T07:38:24.004Z,5.10
2018-12-10T07:40:58.525Z,5.10
2018-12-10T07:43:31.455Z,5.10
2018-12-10T07:46:06.506Z,5.20
2018-12-10T07:48:39.406Z,5.20
2018-12-10T07:51:12.912Z,5.20
2018-12-10T07:53:45.699Z,5.30
2018-12-10T07:56:19.926Z,5.30
2018-12-10T07:58:52.746Z,5.30
2018-12-10T08:01:25.778Z,5.40
2018-12-10T08:03:59.174Z,5.40
2018-12-10T08:06:32.496Z,5.40
2018-12-10T08:09:06.222Z,5.30
2018-12-10T08:11:39.719Z,5.30
2018-12-10T08:14:14.923Z,5.20
2018-12-10T08:16:48.380Z,5.30
2018-12-10T08:19:21.454Z,5.20
2018-12-10T08:21:54.179Z,5.20
2018-12-10T08:24:27.530Z,5.30
2018-12-10T08:27:01.139Z,5.30
2018-12-10T08:29:34.654Z,5.40
2018-12-10T08:32:08.071Z,5.30
2018-12-10T08:34:42.920Z,5.20
2018-12-10T08:37:16.304Z,5.20
2018-12-10T08:39:49.684Z,5.20
2018-12-10T08:42:22.422Z,5.20
2018-12-10T08:44:55.277Z,5.20
2018-12-10T08:47:28.680Z,5.20
2018-12-10T08:50:02.099Z,5.10
2018-12-10T08:52:35.503Z,5.10
2018-12-10T08:55:08.676Z,5.20
2018-12-10T08:57:42.538Z,5.10
2018-12-10T09:00:15.895Z,5.10
2018-12-10T09:02:48.588Z,5.10
2018-12-10T09:05:38.450Z,5.20
2018-12-10T09:08:19.965Z,5.10
2018-12-10T09:10:53.382Z,5.10
2018-12-10T09:13:27.330Z,5.10
2018-12-10T09:16:00.221Z,5.30
2018-12-10T09:18:33.989Z,5.30
2018-12-10T09:21:06.946Z,5.40
2018-12-10T09:23:40.287Z,5.30
2018-12-10T09:26:14.925Z,5.30
2018-12-10T09:28:47.643Z,5.30
2018-12-10T09:31:20.250Z,5.30
2018-12-10T09:33:54.780Z,5.30
2018-12-10T09:36:27.963Z,5.30
2018-12-10T09:39:00.867Z,5.40
2018-12-10T09:41:34.076Z,5.40
2018-12-10T09:44:07.158Z,5.50
2018-12-10T09:46:40.117Z,5.40
2018-12-10T09:49:12.801Z,5.40
2018-12-10T09:51:47.350Z,5.50
2018-12-10T09:54:20.033Z,5.60
2018-12-10T09:56:53.048Z,5.50
2018-12-10T09:59:26.675Z,5.50
2018-12-10T10:02:01.409Z,5.50
2018-12-10T10:04:35.116Z,5.60
2018-12-10T10:10:45.047Z,5.50
2018-12-10T10:13:18.175Z,5.50
2018-12-10T10:15:52.186Z,5.60
2018-12-10T10:18:25.419Z,5.70
2018-12-10T10:20:58.712Z,5.60
2018-12-10T10:23:31.903Z,5.60
2018-12-10T10:26:05.569Z,5.60
2018-12-10T10:28:40.481Z,5.50
2018-12-10T10:31:13.587Z,5.60
2018-12-10T10:33:48.727Z,5.70
2018-12-10T10:36:23.418Z,5.70
2018-12-10T10:38:57.003Z,5.80
2018-12-10T10:41:31.447Z,5.80
2018-12-10T10:44:05.025Z,5.80
2018-12-10T10:46:40.130Z,5.70
2018-12-10T10:49:13.292Z,5.80
2018-12-10T10:51:45.937Z,5.70
2018-12-10T10:54:19.882Z,5.70
2018-12-10T10:56:54.670Z,5.80
2018-12-10T10:59:28.102Z,5.80
2018-12-10T11:02:07.464Z,5.90
2018-12-10T11:04:40.682Z,5.80
2018-12-10T11:07:14.221Z,5.80
2018-12-10T11:09:47.518Z,5.80
2018-12-10T11:12:21.022Z,5.80
2018-12-10T11:14:54.672Z,5.80
2018-12-10T11:17:28.468Z,5.90
2018-12-10T11:20:01.541Z,6.00
2018-12-10T11:22:34.751Z,5.90
2018-12-10T11:25:07.536Z,5.90
2018-12-10T11:27:41.062Z,5.90
2018-12-10T11:30:14.178Z,5.90
2018-12-10T11:32:46.928Z,5.90
2018-12-10T11:35:20.140Z,5.80
2018-12-10T11:37:53.430Z,5.90
2018-12-10T11:40:26.256Z,5.80
2018-12-10T11:42:59.809Z,5.80
2018-12-10T11:45:33.293Z,5.70
2018-12-10T11:48:06.054Z,5.80
2018-12-10T11:50:39.533Z,5.80
2018-12-10T11:53:12.461Z,5.80
2018-12-10T11:55:46.964Z,5.80
2018-12-10T11:58:19.831Z,5.90
2018-12-10T12:00:53.509Z,5.80
2018-12-10T12:03:27.613Z,5.80
2018-12-10T12:06:00.692Z,5.80
2018-12-10T12:08:34.172Z,5.80
2018-12-10T12:11:07.053Z,5.70
2018-12-10T12:13:39.860Z,5.70
2018-12-10T12:16:13.453Z,5.80
2018-12-10T12:18:47.472Z,5.80
2018-12-10T12:21:21.283Z,5.70
2018-12-10T12:23:54.789Z,5.70
2018-12-10T12:26:28.307Z,5.80
2018-12-10T12:29:02.424Z,5.70
2018-12-10T12:31:35.484Z,5.70
2018-12-10T12:34:08.857Z,5.80
2018-12-10T12:36:42.258Z,5.70
2018-12-10T12:39:15.000Z,5.80
2018-12-10T12:41:48.181Z,5.80
2018-12-10T12:44:21.262Z,5.80
2018-12-10T12:46:54.687Z,5.80
2018-12-10T12:49:28.951Z,5.70
2018-12-10T12:52:02.025Z,5.70
2018-12-10T12:54:35.516Z,5.70
2018-12-10T12:57:11.332Z,5.60
2018-12-10T12:59:44.139Z,5.60
2018-12-10T13:02:18.765Z,5.50
2018-12-10T13:04:52.005Z,5.20
2018-12-10T13:07:24.707Z,5.20
2018-12-10T13:09:58.558Z,5.00
2018-12-10T13:12:32.008Z,5.00
2018-12-10T13:15:06.607Z,5.00
2018-12-10T13:17:40.687Z,5.00
2018-12-10T13:20:13.912Z,5.20
2018-12-10T13:22:47.820Z,5.30
2018-12-10T13:25:21.380Z,5.40
2018-12-10T13:27:54.333Z,5.40
2018-12-10T13:30:27.370Z,5.40
2018-12-10T13:33:00.233Z,5.40
2018-12-10T13:38:12.359Z,5.40
2018-12-10T13:40:44.704Z,5.40
2018-12-10T13:43:18.151Z,5.50
2018-12-10T13:45:50.959Z,5.40
2018-12-10T13:48:23.458Z,5.40
2018-12-10T13:50:57.161Z,5.50
2018-12-10T13:53:31.948Z,5.50
2018-12-10T13:56:04.760Z,5.50
2018-12-10T13:58:37.675Z,5.60
2018-12-10T14:01:10.800Z,5.60
2018-12-10T14:03:44.141Z,5.60
2018-12-10T14:06:17.386Z,5.70
2018-12-10T14:08:50.714Z,5.60
2018-12-10T14:11:24.354Z,5.60
2018-12-10T14:13:57.335Z,5.70
2018-12-10T14:16:30.604Z,5.60
2018-12-10T14:19:03.279Z,5.70
2018-12-10T14:21:37.496Z,5.80
2018-12-10T14:24:11.711Z,5.70
2018-12-10T14:26:44.440Z,5.70
2018-12-10T14:29:17.761Z,5.60
2018-12-10T14:31:52.273Z,5.60
2018-12-10T14:34:26.052Z,5.50
2018-12-10T14:37:01.492Z,5.60
2018-12-10T14:39:34.500Z,5.60
2018-12-10T14:42:18.016Z,5.60
2018-12-10T14:44:50.972Z,5.60
2018-12-10T14:47:24.091Z,5.50
2018-12-10T14:49:57.648Z,5.60
2018-12-10T14:52:30.694Z,5.50
2018-12-10T14:55:05.455Z,5.50
2018-12-10T14:57:42.240Z,5.50
2018-12-10T15:00:15.425Z,5.50
2018-12-10T15:02:48.809Z,5.50
2018-12-10T15:05:23.743Z,5.50
2018-12-10T15:07:56.867Z,5.60
2018-12-10T15:10:30.879Z,5.40
2018-12-10T15:13:03.941Z,5.40
2018-12-10T15:15:37.032Z,5.40
2018-12-10T15:18:10.158Z,5.30
2018-12-10T15:20:42.881Z,5.30
2018-12-10T15:23:15.616Z,5.20
2018-12-10T15:25:48.637Z,5.30
2018-12-10T15:28:21.414Z,5.30
2018-12-10T15:30:53.922Z,5.30
2018-12-10T15:33:28.367Z,5.30
2018-12-10T15:36:01.734Z,5.40
2018-12-10T15:38:34.736Z,5.30
2018-12-10T15:41:07.996Z,5.30
2018-12-10T15:43:41.133Z,5.30
2018-12-10T15:46:14.718Z,5.30
2018-12-10T15:48:47.758Z,5.30
2018-12-10T15:51:22.434Z,5.40
2018-12-10T15:53:57.983Z,5.30
2018-12-10T15:56:32.080Z,5.30
2018-12-10T15:59:06.665Z,5.30
2018-12-10T16:01:40.245Z,5.30
2018-12-10T16:04:14.897Z,5.30
2018-12-10T16:06:47.622Z,5.20
2018-12-10T16:09:20.866Z,5.20
2018-12-10T16:11:54.329Z,5.20
2018-12-10T16:14:28.141Z,5.20
2018-12-10T16:17:00.857Z,5.20
2018-12-10T16:19:35.101Z,5.20
2018-12-10T16:22:07.998Z,5.30
2018-12-10T16:24:41.263Z,5.20
2018-12-10T16:27:14.750Z,5.20
2018-12-10T16:29:47.635Z,5.30
2018-12-10T16:32:20.626Z,5.20
2018-12-10T16:34:53.367Z,5.10
2018-12-10T16:37:25.837Z,5.10
2018-12-10T16:39:59.326Z,5.10
2018-12-10T16:42:32.680Z,5.00
2018-12-10T16:45:07.148Z,4.90
2018-12-10T16:47:40.307Z,4.80
2018-12-10T16:50:13.220Z,4.80
2018-12-10T16:52:46.227Z,4.80
2018-12-10T16:55:19.509Z,4.90
2018-12-10T16:57:53.207Z,4.70
2018-12-10T17:00:26.379Z,4.70
2018-12-10T17:02:59.428Z,4.60
2018-12-10T17:05:32.588Z,4.50
2018-12-10T17:08:05.936Z,4.50
2018-12-10T17:10:39.408Z,4.50
2018-12-10T17:13:12.291Z,4.50
2018-12-10T17:15:46.478Z,4.50
2018-12-10T17:18:19.714Z,4.50
2018-12-10T17:20:53.359Z,4.60
2018-12-10T17:23:26.087Z,4.60
2018-12-10T17:25:59.289Z,4.60
2018-12-10T17:28:33.493Z,4.50
2018-12-10T17:31:06.146Z,4.60
2018-12-10T17:33:38.772Z,4.50
2018-12-10T17:36:11.936Z,4.50
2018-12-10T17:38:45.172Z,4.60
2018-12-10T17:41:19.912Z,4.50
2018-12-10T17:43:53.121Z,4.50
2018-12-10T17:46:26.391Z,4.60
2018-12-10T17:48:59.772Z,4.60
2018-12-10T17:51:33.016Z,4.50
2018-12-10T17:54:06.219Z,4.40
2018-12-10T17:56:39.257Z,4.20
2018-12-10T17:59:12.944Z,4.40
2018-12-10T18:01:47.914Z,4.30
2018-12-10T18:04:21.030Z,4.50
2018-12-10T18:06:55.710Z,4.30
2018-12-10T18:09:28.911Z,4.30
2018-12-10T18:12:02.394Z,4.40
2018-12-10T18:14:35.478Z,4.30
2018-12-10T18:17:08.646Z,4.30
2018-12-10T18:19:41.861Z,4.40
2018-12-10T18:22:14.436Z,4.40
2018-12-10T18:24:47.752Z,4.50
2018-12-10T18:27:20.389Z,4.50
2018-12-10T18:29:54.975Z,4.50
2018-12-10T18:32:27.587Z,4.40
2018-12-10T18:35:01.010Z,4.50
2018-12-10T18:37:33.869Z,4.50
2018-12-10T18:40:11.325Z,4.50
2018-12-10T18:42:44.607Z,4.50
2018-12-10T18:45:18.815Z,4.50
2018-12-10T18:47:51.837Z,4.50
2018-12-10T18:50:26.104Z,4.60
2018-12-10T18:53:00.663Z,4.60
2018-12-10T18:55:33.901Z,4.60
2018-12-10T18:58:07.041Z,4.60
2018-12-10T19:00:40.272Z,4.50
2018-12-10T19:03:14.219Z,4.50
2018-12-10T19:05:47.950Z,4.60
2018-12-10T19:08:21.414Z,4.50
2018-12-10T19:10:54.748Z,4.50
2018-12-10T19:13:27.617Z,4.50
2018-12-10T19:16:00.732Z,4.50
2018-12-10T19:18:33.674Z,4.50
2018-12-10T19:21:07.003Z,4.50
2018-12-10T19:23:40.002Z,4.40
2018-12-10T19:26:12.735Z,4.50
2018-12-10T19:28:45.702Z,4.50
2018-12-10T19:31:19.199Z,4.50
2018-12-10T19:33:52.513Z,4.50
2018-12-10T19:36:25.140Z,4.50
2018-12-10T19:38:57.806Z,4.50
2018-12-10T19:41:30.918Z,4.50
2018-12-10T19:46:37.511Z,4.70
2018-12-10T19:49:10.870Z,4.70
2018-12-10T19:51:50.728Z,4.70
2018-12-10T19:54:25.121Z,4.80
2018-12-10T19:56:58.428Z,4.70
2018-12-10T19:59:31.342Z,4.60
2018-12-10T20:02:05.097Z,4.60
2018-12-10T20:04:38.445Z,4.50
2018-12-10T20:07:12.924Z,4.60
2018-12-10T20:09:46.322Z,4.60
2018-12-10T20:12:19.374Z,4.60
2018-12-10T20:14:52.506Z,4.60
2018-12-10T20:17:26.496Z,4.60
2018-12-10T20:19:59.289Z,4.50
2018-12-10T20:22:32.428Z,4.50
2018-12-10T20:25:05.627Z,4.60
2018-12-10T20:27:39.192Z,4.60
2018-12-10T20:30:12.682Z,4.60
2018-12-10T20:32:45.375Z,4.60
2018-12-10T20:35:18.268Z,4.60
2018-12-10T20:37:51.703Z,4.70
2018-12-10T20:40:25.692Z,4.70
2018-12-10T20:43:00.491Z,4.80
2018-12-10T20:45:33.689Z,4.70
2018-12-10T20:48:06.291Z,4.80
2018-12-10T20:50:39.578Z,4.80
2018-12-10T20:53:13.887Z,4.80
2018-12-10T20:55:47.869Z,4.90
2018-12-10T20:58:21.143Z,4.90
2018-12-10T21:00:53.790Z,4.90
2018-12-10T21:03:27.111Z,5.00
2018-12-10T21:06:05.895Z,4.90
2018-12-10T21:08:40.431Z,4.90
2018-12-10T21:11:13.701Z,4.90
2018-12-10T21:13:48.709Z,4.80
2018-12-10T21:16:21.680Z,4.80
2018-12-10T21:18:54.958Z,4.80
2018-12-10T21:21:28.088Z,4.80
2018-12-10T21:24:02.074Z,4.80
2018-12-10T21:26:35.773Z,4.80
2018-12-10T21:29:09.312Z,4.80
2018-12-10T21:31:43.463Z,4.80
2018-12-10T21:34:16.760Z,4.80
2018-12-10T21:36:49.972Z,4.90
2018-12-10T21:39:23.833Z,4.90
2018-12-10T21:41:56.977Z,4.80
2018-12-10T21:44:29.972Z,4.80
2018-12-10T21:47:03.378Z,4.80
2018-12-10T21:49:36.077Z,4.80
2018-12-10T21:52:09.818Z,4.70
2018-12-10T21:54:44.433Z,4.70
2018-12-10T21:57:17.610Z,4.70
2018-12-10T21:59:51.070Z,4.60
2018-12-10T22:02:24.492Z,4.70
2018-12-10T22:04:58.388Z,4.70
2018-12-10T22:07:31.306Z,4.70
2018-12-10T22:10:05.372Z,4.70
2018-12-10T22:12:40.297Z,4.70
2018-12-10T22:15:13.004Z,4.70
2018-12-10T22:17:47.956Z,4.70
2018-12-10T22:20:20.431Z,4.70
2018-12-10T22:22:53.622Z,4.60
2018-12-10T22:25:27.384Z,4.60
2018-12-10T22:28:01.648Z,4.70
2018-12-10T22:30:34.991Z,4.70
2018-12-10T22:33:09.115Z,4.70
2018-12-10T22:35:42.270Z,4.70
2018-12-10T22:38:17.331Z,4.70
2018-12-10T22:40:53.006Z,4.70
2018-12-10T22:43:25.559Z,4.70
2018-12-10T22:45:58.900Z,4.80
2018-12-10T22:48:31.954Z,4.80
2018-12-10T22:51:05.605Z,4.80
2018-12-10T22:53:38.780Z,4.80
2018-12-10T22:56:11.421Z,4.90
2018-12-10T22:58:44.232Z,4.80
2018-12-10T23:01:16.918Z,4.80
2018-12-10T23:03:49.944Z,4.80
2018-12-10T23:06:22.606Z,4.80
2018-12-10T23:08:55.480Z,4.80
2018-12-10T23:11:29.380Z,4.80
2018-12-10T23:14:02.543Z,4.80
2018-12-10T23:16:37.069Z,4.90
2018-12-10T23:19:09.908Z,4.90
2018-12-10T23:21:44.457Z,4.80
2018-12-10T23:24:17.453Z,4.90
2018-12-10T23:26:49.949Z,4.80
2018-12-10T23:29:24.930Z,4.80
2018-12-10T23:31:58.778Z,4.90
2018-12-10T23:34:33.275Z,4.90
2018-12-10T23:37:05.830Z,4.90
2018-12-10T23:39:39.191Z,4.90
2018-12-10T23:42:12.449Z,4.90
2018-12-10T23:44:51.512Z,4.90
2018-12-10T23:47:24.558Z,4.80
2018-12-10T23:49:59.248Z,4.90
2018-12-10T23:52:32.543Z,4.90
2018-12-10T23:55:06.494Z,4.90
2018-12-10T23:57:39.969Z,4.90
